Time;durP1;ratioP1;P1;durP2;ratioP2;P2;SDS_P1;SDS_P2;PMS_P1;PMS_P2;Temp;Humidity;BMP_temperature;BMP_pressure;BME280_temperature;BME280_humidity;BME280_pressure;Samples;Min_cycle;Max_cycle;Signal;HPM_P1;HPM_P2
2022/07/09 00:04:06;;;;;;;2.88;1.33;;;;;;;;;;10061449;28;20546;-75
2022/07/09 00:09:00;;;;;;;1.92;1.08;;;;;;;;;;10059220;28;20129;-75
2022/07/09 00:13:54;;;;;;;2.47;1.17;;;;;;;;;;10061097;28;20103;-75
2022/07/09 00:18:48;;;;;;;2.95;1.15;;;;;;;;;;10066296;28;20053;-75
2022/07/09 00:23:43;;;;;;;6.78;1.63;;;;;;;;;;10060476;28;20496;-75
2022/07/09 00:28:37;;;;;;;2.13;1.10;;;;;;;;;;10057000;28;20500;-75
2022/07/09 00:33:31;;;;;;;1.90;1.25;;;;;;;;;;10056481;28;20054;-75
2022/07/09 00:38:25;;;;;;;2.15;1.23;;;;;;;;;;10060911;28;20085;-75
2022/07/09 00:43:21;;;;;;;2.00;1.30;;;;;;;;;;10064126;28;20042;-75
2022/07/09 00:48:16;;;;;;;3.25;1.08;;;;;;;;;;10059655;28;20052;-75
2022/07/09 00:53:16;;;;;;;1.13;1.02;;;;;;;;;;10071470;28;20080;-75
2022/07/09 00:58:12;;;;;;;1.75;1.13;;;;;;;;;;10055258;28;20544;-75
2022/07/09 01:03:07;;;;;;;7.68;1.20;;;;;;;;;;10054886;28;20061;-75
2022/07/09 01:08:02;;;;;;;5.20;1.42;;;;;;;;;;10058102;28;20053;-75
2022/07/09 01:12:58;;;;;;;3.85;1.20;;;;;;;;;;10065367;28;20107;-74
2022/07/09 01:17:52;;;;;;;1.27;1.08;;;;;;;;;;10069717;28;20050;-74
2022/07/09 01:22:47;;;;;;;2.50;1.15;;;;;;;;;;10060158;28;20107;-74
2022/07/09 01:27:41;;;;;;;2.03;1.40;;;;;;;;;;10048094;28;20141;-75
2022/07/09 01:32:35;;;;;;;3.30;1.30;;;;;;;;;;10060583;28;20058;-74
2022/07/09 01:37:29;;;;;;;2.28;1.35;;;;;;;;;;10063494;28;21319;-75
2022/07/09 01:42:23;;;;;;;3.00;1.17;;;;;;;;;;10052105;28;20049;-75
2022/07/09 01:47:17;;;;;;;1.42;1.30;;;;;;;;;;10068831;28;20045;-75
2022/07/09 01:52:11;;;;;;;2.38;1.30;;;;;;;;;;10063893;28;20057;-74
2022/07/09 01:57:06;;;;;;;1.85;1.17;;;;;;;;;;10064300;28;20119;-75
2022/07/09 02:02:00;;;;;;;5.07;1.42;;;;;;;;;;10062038;28;20045;-75
2022/07/09 02:06:56;;;;;;;2.35;1.30;;;;;;;;;;10061075;28;20411;-74
2022/07/09 02:11:49;;;;;;;2.20;1.38;;;;;;;;;;10060342;28;20049;-75
2022/07/09 02:16:42;;;;;;;1.70;1.20;;;;;;;;;;10067509;28;20128;-74
2022/07/09 02:21:36;;;;;;;4.60;1.58;;;;;;;;;;10066474;28;20497;-73
2022/07/09 02:26:30;;;;;;;1.98;1.42;;;;;;;;;;10064725;28;20061;-73
2022/07/09 02:31:24;;;;;;;5.90;1.92;;;;;;;;;;10060742;28;20058;-72
2022/07/09 02:36:19;;;;;;;4.03;1.48;;;;;;;;;;10067881;28;20467;-73
2022/07/09 02:41:13;;;;;;;2.08;1.48;;;;;;;;;;10067395;28;20098;-73
2022/07/09 02:46:07;;;;;;;2.75;1.30;;;;;;;;;;10058838;28;20049;-74
2022/07/09 02:51:01;;;;;;;2.13;1.30;;;;;;;;;;10069265;28;20398;-75
2022/07/09 02:55:54;;;;;;;2.50;1.65;;;;;;;;;;10056487;28;20420;-75
2022/07/09 03:00:48;;;;;;;1.77;1.27;;;;;;;;;;10064998;28;20053;-70
2022/07/09 03:05:43;;;;;;;2.13;1.48;;;;;;;;;;10054072;28;20050;-71
2022/07/09 03:10:37;;;;;;;2.05;1.60;;;;;;;;;;10068781;28;20073;-71
2022/07/09 03:15:31;;;;;;;3.05;1.40;;;;;;;;;;10065726;28;20128;-71
2022/07/09 03:20:25;;;;;;;2.20;1.55;;;;;;;;;;10063679;28;20056;-70
2022/07/09 03:25:19;;;;;;;2.63;1.25;;;;;;;;;;10048426;28;20049;-71
2022/07/09 03:30:14;;;;;;;5.00;1.50;;;;;;;;;;10057949;28;20171;-71
2022/07/09 03:35:09;;;;;;;5.30;2.00;;;;;;;;;;10068443;28;20132;-71
2022/07/09 03:40:04;;;;;;;1.88;1.50;;;;;;;;;;10056433;28;20488;-71
2022/07/09 03:44:58;;;;;;;2.55;1.63;;;;;;;;;;10057227;28;20041;-71
2022/07/09 03:49:52;;;;;;;4.07;1.58;;;;;;;;;;10066618;28;20064;-71
2022/07/09 03:54:46;;;;;;;4.53;1.52;;;;;;;;;;10068213;28;20069;-71
2022/07/09 03:59:40;;;;;;;2.17;1.73;;;;;;;;;;10058757;28;20062;-71
2022/07/09 04:04:34;;;;;;;3.22;2.15;;;;;;;;;;10054716;28;20508;-71
2022/07/09 04:09:28;;;;;;;2.97;1.77;;;;;;;;;;10066756;28;20068;-71
2022/07/09 04:14:22;;;;;;;2.40;1.67;;;;;;;;;;10058109;28;20140;-71
2022/07/09 04:19:17;;;;;;;2.28;1.92;;;;;;;;;;10064833;28;20050;-71
2022/07/09 04:24:11;;;;;;;6.47;1.80;;;;;;;;;;10062112;28;20068;-71
2022/07/09 04:29:05;;;;;;;4.78;1.85;;;;;;;;;;10054023;28;20136;-71
2022/07/09 04:34:00;;;;;;;2.50;1.75;;;;;;;;;;10059218;28;20076;-71
2022/07/09 04:38:55;;;;;;;3.67;1.35;;;;;;;;;;10057709;28;20073;-71
2022/07/09 04:43:49;;;;;;;4.28;1.27;;;;;;;;;;10044037;28;20058;-71
2022/07/09 04:48:43;;;;;;;4.70;1.98;;;;;;;;;;10052256;28;20078;-71
2022/07/09 04:53:37;;;;;;;4.65;2.63;;;;;;;;;;10062803;28;20129;-71
2022/07/09 04:58:30;;;;;;;4.53;1.58;;;;;;;;;;10053983;28;20448;-71
2022/07/09 05:03:25;;;;;;;3.38;1.85;;;;;;;;;;10053660;28;20091;-69
2022/07/09 05:08:20;;;;;;;7.20;2.50;;;;;;;;;;10070993;28;20100;-70
2022/07/09 05:13:13;;;;;;;5.70;2.55;;;;;;;;;;10052902;28;20124;-70
2022/07/09 05:18:07;;;;;;;4.28;1.90;;;;;;;;;;10066891;28;20049;-70
2022/07/09 05:23:02;;;;;;;4.72;1.70;;;;;;;;;;10059537;28;20566;-71
2022/07/09 05:27:56;;;;;;;2.80;1.80;;;;;;;;;;10066917;28;20049;-70
2022/07/09 05:32:50;;;;;;;6.13;2.03;;;;;;;;;;10060338;28;20042;-69
2022/07/09 05:37:45;;;;;;;6.97;1.77;;;;;;;;;;10068411;28;20080;-73
2022/07/09 05:42:39;;;;;;;8.40;2.83;;;;;;;;;;10059432;28;20125;-73
2022/07/09 05:47:33;;;;;;;4.32;2.67;;;;;;;;;;10065510;28;20053;-72
2022/07/09 05:52:26;;;;;;;21.75;4.22;;;;;;;;;;10063479;28;20061;-73
2022/07/09 05:57:21;;;;;;;13.95;3.30;;;;;;;;;;10061733;28;20054;-75
2022/07/09 06:02:15;;;;;;;9.70;3.30;;;;;;;;;;10060195;28;20053;-74
2022/07/09 06:07:09;;;;;;;11.60;3.08;;;;;;;;;;10059887;28;20128;-74
2022/07/09 06:12:02;;;;;;;8.05;4.43;;;;;;;;;;10053668;28;20067;-74
2022/07/09 06:16:57;;;;;;;5.55;2.13;;;;;;;;;;10057288;28;20053;-76
2022/07/09 06:21:51;;;;;;;5.50;2.50;;;;;;;;;;10053137;28;20041;-74
2022/07/09 06:26:46;;;;;;;3.88;1.58;;;;;;;;;;10057475;28;20166;-72
2022/07/09 06:31:41;;;;;;;4.63;1.55;;;;;;;;;;10056773;28;20042;-73
2022/07/09 06:36:36;;;;;;;2.88;1.30;;;;;;;;;;10051282;28;20548;-72
2022/07/09 06:41:30;;;;;;;1.20;1.10;;;;;;;;;;10056179;28;20073;-72
2022/07/09 06:46:24;;;;;;;2.83;1.40;;;;;;;;;;10061901;28;20471;-69
2022/07/09 06:51:17;;;;;;;4.05;1.33;;;;;;;;;;10063461;28;20073;-71
2022/07/09 06:56:12;;;;;;;1.88;1.40;;;;;;;;;;10060157;28;20413;-69
2022/07/09 07:01:06;;;;;;;2.97;1.40;;;;;;;;;;10059860;28;20053;-70
2022/07/09 07:06:01;;;;;;;2.83;1.40;;;;;;;;;;10066730;28;20416;-73
2022/07/09 07:10:55;;;;;;;1.27;0.90;;;;;;;;;;10065725;28;20140;-72
2022/07/09 07:15:50;;;;;;;2.78;1.35;;;;;;;;;;10066820;28;20091;-69
2022/07/09 07:20:43;;;;;;;2.75;1.35;;;;;;;;;;10067401;28;20062;-70
2022/07/09 07:25:37;;;;;;;4.32;1.75;;;;;;;;;;10063368;28;20061;-72
2022/07/09 07:30:32;;;;;;;3.40;1.15;;;;;;;;;;10064099;28;20068;-73
2022/07/09 07:35:26;;;;;;;3.47;1.13;;;;;;;;;;10057022;28;20056;-72
2022/07/09 07:40:20;;;;;;;2.53;1.02;;;;;;;;;;10059736;28;20047;-72
2022/07/09 07:45:15;;;;;;;3.63;0.80;;;;;;;;;;10059318;28;20061;-74
2022/07/09 07:50:09;;;;;;;4.43;0.88;;;;;;;;;;10070816;28;20085;-71
2022/07/09 07:55:03;;;;;;;1.15;0.70;;;;;;;;;;10058126;28;20498;-71
2022/07/09 07:59:58;;;;;;;1.77;0.90;;;;;;;;;;10047370;28;20058;-73
2022/07/09 08:04:51;;;;;;;6.07;1.85;;;;;;;;;;10060401;28;20049;-73
2022/07/09 08:09:46;;;;;;;2.92;0.70;;;;;;;;;;10059124;28;20052;-72
2022/07/09 08:14:39;;;;;;;4.93;0.80;;;;;;;;;;10058144;28;20064;-71
2022/07/09 08:19:34;;;;;;;7.65;0.80;;;;;;;;;;10060771;28;20061;-68
2022/07/09 08:24:29;;;;;;;0.68;0.60;;;;;;;;;;10061530;28;20077;-72
2022/07/09 08:29:23;;;;;;;2.88;0.88;;;;;;;;;;10060154;28;20053;-70
2022/07/09 08:34:18;;;;;;;7.82;0.95;;;;;;;;;;10061472;28;20060;-70
2022/07/09 08:39:12;;;;;;;1.60;0.90;;;;;;;;;;10061260;28;20107;-71
2022/07/09 08:44:12;;;;;;;3.40;0.77;;;;;;;;;;10069709;28;20136;-69
2022/07/09 08:49:07;;;;;;;1.38;0.75;;;;;;;;;;10066255;28;20132;-70
2022/07/09 08:54:02;;;;;;;2.40;0.80;;;;;;;;;;10066419;28;20045;-70
2022/07/09 08:58:55;;;;;;;4.68;0.80;;;;;;;;;;10071747;28;20049;-70
2022/07/09 09:03:50;;;;;;;3.60;0.90;;;;;;;;;;10068823;28;20570;-70
2022/07/09 09:08:44;;;;;;;4.00;0.93;;;;;;;;;;10070335;28;20049;-69
2022/07/09 09:13:45;;;;;;;4.65;1.10;;;;;;;;;;10070816;28;20058;-71
2022/07/09 09:18:47;;;;;;;5.22;1.52;;;;;;;;;;10070021;28;20080;-69
2022/07/09 09:23:44;;;;;;;3.33;0.80;;;;;;;;;;10068569;28;20103;-68
2022/07/09 09:28:57;;;;;;;7.60;1.80;;;;;;;;;;10068842;28;20479;-71
2022/07/09 09:33:54;;;;;;;5.72;0.98;;;;;;;;;;10069721;28;20124;-67
2022/07/09 09:38:49;;;;;;;3.47;0.87;;;;;;;;;;10068712;28;20050;-73
2022/07/09 09:43:43;;;;;;;6.65;1.10;;;;;;;;;;10063052;28;20369;-69
2022/07/09 09:48:38;;;;;;;3.28;1.42;;;;;;;;;;10061104;28;20080;-68
2022/07/09 09:53:32;;;;;;;2.15;0.73;;;;;;;;;;10071562;28;20053;-67
2022/07/09 09:58:26;;;;;;;4.03;0.93;;;;;;;;;;10068407;28;20060;-71
2022/07/09 10:03:20;;;;;;;3.50;1.42;;;;;;;;;;10061056;28;20440;-69
2022/07/09 10:08:14;;;;;;;4.30;0.80;;;;;;;;;;10055846;28;20050;-67
2022/07/09 10:13:08;;;;;;;5.13;0.95;;;;;;;;;;10060428;28;20100;-68
2022/07/09 10:18:11;;;;;;;5.28;0.90;;;;;;;;;;10062258;28;20148;-68
2022/07/09 10:23:05;;;;;;;4.65;1.25;;;;;;;;;;10063243;28;20119;-69
2022/07/09 10:27:58;;;;;;;0.73;0.70;;;;;;;;;;10064469;28;20045;-69
2022/07/09 10:33:04;;;;;;;2.17;0.85;;;;;;;;;;10063253;28;20065;-69
2022/07/09 10:37:57;;;;;;;2.85;1.10;;;;;;;;;;10060226;28;20072;-69
2022/07/09 10:43:02;;;;;;;3.80;1.20;;;;;;;;;;10063411;28;20077;-70
2022/07/09 10:47:58;;;;;;;1.23;0.95;;;;;;;;;;10062794;28;20051;-70
2022/07/09 10:52:52;;;;;;;4.55;0.75;;;;;;;;;;10060180;28;20053;-70
2022/07/09 10:57:46;;;;;;;3.35;0.90;;;;;;;;;;10061465;28;20158;-68
2022/07/09 11:02:57;;;;;;;1.48;1.00;;;;;;;;;;10075797;28;20042;-70
2022/07/09 11:07:56;;;;;;;4.43;0.77;;;;;;;;;;10061116;28;20049;-69
2022/07/09 11:12:49;;;;;;;2.55;0.65;;;;;;;;;;10060241;28;20053;-69
2022/07/09 11:17:43;;;;;;;0.52;0.52;;;;;;;;;;10055008;28;20077;-69
2022/07/09 11:22:38;;;;;;;2.08;0.80;;;;;;;;;;10048088;28;20089;-68
2022/07/09 11:27:31;;;;;;;1.23;0.70;;;;;;;;;;10057155;28;20511;-67
2022/07/09 11:32:27;;;;;;;3.85;0.90;;;;;;;;;;10069579;28;20049;-67
2022/07/09 11:37:27;;;;;;;0.75;0.55;;;;;;;;;;10064889;28;20099;-67
2022/07/09 11:42:22;;;;;;;1.70;0.88;;;;;;;;;;10057778;28;20137;-69
2022/07/09 11:47:21;;;;;;;3.25;1.00;;;;;;;;;;10062154;28;20057;-69
2022/07/09 11:52:18;;;;;;;1.08;0.90;;;;;;;;;;10061024;28;20045;-69
2022/07/09 11:57:23;;;;;;;1.38;0.88;;;;;;;;;;10057337;28;20049;-71
2022/07/09 12:02:49;;;;;;;1.20;0.70;;;;;;;;;;10062240;28;20045;-70
2022/07/09 12:07:52;;;;;;;1.95;0.80;;;;;;;;;;10061122;28;20057;-71
2022/07/09 12:12:45;;;;;;;0.90;0.85;;;;;;;;;;10066203;28;20059;-71
2022/07/09 12:17:40;;;;;;;1.83;1.00;;;;;;;;;;10055385;28;20054;-75
2022/07/09 12:22:34;;;;;;;0.70;0.70;;;;;;;;;;10062677;28;20050;-71
2022/07/09 12:27:29;;;;;;;1.17;0.70;;;;;;;;;;10061550;28;20045;-70
2022/07/09 12:32:23;;;;;;;0.82;0.63;;;;;;;;;;10063326;28;20053;-71
2022/07/09 12:37:17;;;;;;;6.55;0.98;;;;;;;;;;10059129;28;20092;-72
2022/07/09 12:42:10;;;;;;;2.08;0.63;;;;;;;;;;10062508;28;20148;-71
2022/07/09 12:47:05;;;;;;;1.55;0.70;;;;;;;;;;10065229;28;20045;-72
2022/07/09 12:51:58;;;;;;;0.85;0.73;;;;;;;;;;10065060;28;20404;-73
2022/07/09 12:56:52;;;;;;;2.63;1.30;;;;;;;;;;10063891;28;20068;-72
2022/07/09 13:02:03;;;;;;;2.00;0.82;;;;;;;;;;10061427;28;20049;-73
2022/07/09 13:06:57;;;;;;;2.25;0.80;;;;;;;;;;10064618;28;20054;-75
2022/07/09 13:11:51;;;;;;;1.17;0.88;;;;;;;;;;10063934;28;20046;-73
2022/07/09 13:16:45;;;;;;;1.27;0.70;;;;;;;;;;10063259;28;20049;-73
2022/07/09 13:21:59;;;;;;;1.08;0.98;;;;;;;;;;10061321;28;20080;-76
2022/07/09 13:26:53;;;;;;;5.30;0.95;;;;;;;;;;10066200;28;20076;-72
2022/07/09 13:31:47;;;;;;;3.60;0.70;;;;;;;;;;10070882;28;20415;-71
2022/07/09 13:36:41;;;;;;;3.67;1.05;;;;;;;;;;10069059;28;20500;-75
2022/07/09 13:41:36;;;;;;;11.48;2.35;;;;;;;;;;10068878;28;20111;-71
2022/07/09 13:46:30;;;;;;;2.85;0.90;;;;;;;;;;10070701;28;20194;-71
2022/07/09 13:51:23;;;;;;;0.98;0.77;;;;;;;;;;10064374;28;20468;-72
2022/07/09 13:56:18;;;;;;;2.22;0.88;;;;;;;;;;10069510;28;20052;-73
2022/07/09 14:01:14;;;;;;;3.50;0.80;;;;;;;;;;10068844;28;20060;-72
2022/07/09 14:06:07;;;;;;;1.13;0.70;;;;;;;;;;10068574;28;20443;-73
2022/07/09 14:11:20;;;;;;;2.85;0.90;;;;;;;;;;10063979;28;20100;-74
2022/07/09 14:16:13;;;;;;;1.25;0.82;;;;;;;;;;10065857;28;20076;-74
2022/07/09 14:21:09;;;;;;;1.95;0.90;;;;;;;;;;10066932;28;20377;-75
2022/07/09 14:26:03;;;;;;;2.97;0.60;;;;;;;;;;10068033;28;20408;-71
2022/07/09 14:30:57;;;;;;;1.50;0.85;;;;;;;;;;10069307;28;20096;-73
2022/07/09 14:35:51;;;;;;;2.33;0.93;;;;;;;;;;10067116;28;20085;-74
2022/07/09 14:40:45;;;;;;;3.92;0.98;;;;;;;;;;10066365;28;20045;-73
2022/07/09 14:45:42;;;;;;;1.63;0.90;;;;;;;;;;10066101;28;20149;-73
2022/07/09 14:50:35;;;;;;;1.42;1.10;;;;;;;;;;10064517;28;20471;-72
2022/07/09 14:55:30;;;;;;;2.50;1.05;;;;;;;;;;10064158;28;20137;-71
2022/07/09 15:00:25;;;;;;;4.30;0.93;;;;;;;;;;10067775;28;20472;-71
2022/07/09 15:05:18;;;;;;;5.28;0.70;;;;;;;;;;10067670;28;20050;-72
2022/07/09 15:10:12;;;;;;;1.75;0.80;;;;;;;;;;10067945;28;20045;-74
2022/07/09 15:15:09;;;;;;;3.42;1.00;;;;;;;;;;10068232;28;20049;-70
2022/07/09 15:20:03;;;;;;;3.58;1.05;;;;;;;;;;10066957;28;20045;-73
2022/07/09 15:24:58;;;;;;;1.45;0.80;;;;;;;;;;10067179;28;20744;-71
2022/07/09 15:29:53;;;;;;;0.95;0.70;;;;;;;;;;10065727;28;20099;-72
2022/07/09 15:34:48;;;;;;;3.50;0.93;;;;;;;;;;10065922;28;20099;-70
2022/07/09 15:39:44;;;;;;;2.03;1.10;;;;;;;;;;10064488;28;20076;-71
2022/07/09 15:44:39;;;;;;;4.00;0.95;;;;;;;;;;10061039;28;20049;-70
2022/07/09 15:49:33;;;;;;;3.75;1.30;;;;;;;;;;10064548;28;20049;-70
2022/07/09 15:54:28;;;;;;;2.55;0.77;;;;;;;;;;10064762;28;20445;-72
2022/07/09 15:59:22;;;;;;;3.25;0.77;;;;;;;;;;10065453;28;20148;-72
2022/07/09 16:04:16;;;;;;;2.35;1.00;;;;;;;;;;10065579;28;20455;-70
2022/07/09 16:09:10;;;;;;;0.93;0.80;;;;;;;;;;10061001;28;20072;-72
2022/07/09 16:14:04;;;;;;;1.95;1.00;;;;;;;;;;10064651;28;20416;-71
2022/07/09 16:18:58;;;;;;;1.83;1.10;;;;;;;;;;10064881;28;20048;-70
2022/07/09 16:23:52;;;;;;;2.47;0.93;;;;;;;;;;10062344;28;20508;-76
2022/07/09 16:28:46;;;;;;;2.47;1.05;;;;;;;;;;10063607;28;20365;-75
2022/07/09 16:33:41;;;;;;;3.15;1.05;;;;;;;;;;10063321;28;20500;-76
2022/07/09 16:38:35;;;;;;;4.28;1.17;;;;;;;;;;10064452;28;20128;-73
2022/07/09 16:43:30;;;;;;;6.43;2.42;;;;;;;;;;10065136;28;20137;-77
2022/07/09 16:48:24;;;;;;;1.88;0.90;;;;;;;;;;10062390;28;20050;-77
2022/07/09 16:53:17;;;;;;;2.25;0.90;;;;;;;;;;10062738;28;20049;-72
2022/07/09 16:58:12;;;;;;;1.65;0.90;;;;;;;;;;10063799;28;20148;-77
2022/07/09 17:03:08;;;;;;;2.88;1.08;;;;;;;;;;10068776;28;20052;-77
2022/07/09 17:08:05;;;;;;;4.55;0.90;;;;;;;;;;10073385;28;20057;-77
2022/07/09 17:13:02;;;;;;;2.83;1.10;;;;;;;;;;10063561;28;20047;-71
2022/07/09 17:17:57;;;;;;;0.70;0.70;;;;;;;;;;10064835;28;20049;-71
2022/07/09 17:22:58;;;;;;;4.13;1.00;;;;;;;;;;10061926;28;20475;-71
2022/07/09 17:27:52;;;;;;;2.05;1.15;;;;;;;;;;10061179;28;20068;-73
2022/07/09 17:32:47;;;;;;;3.20;1.10;;;;;;;;;;10068952;28;20069;-71
2022/07/09 17:37:40;;;;;;;5.03;1.15;;;;;;;;;;10071476;28;20060;-73
2022/07/09 17:42:34;;;;;;;1.95;1.30;;;;;;;;;;10064687;28;20144;-71
2022/07/09 17:47:28;;;;;;;5.90;1.30;;;;;;;;;;10068385;28;20488;-70
2022/07/09 17:52:22;;;;;;;4.53;1.02;;;;;;;;;;10064865;28;20156;-70
2022/07/09 17:57:16;;;;;;;1.08;0.98;;;;;;;;;;10070568;28;20061;-70
2022/07/09 18:02:11;;;;;;;3.80;1.05;;;;;;;;;;10065712;28;20118;-69
2022/07/09 18:07:06;;;;;;;4.20;1.30;;;;;;;;;;10067506;28;20057;-67
2022/07/09 18:12:03;;;;;;;1.70;1.30;;;;;;;;;;10068118;28;20049;-70
2022/07/09 18:16:57;;;;;;;10.52;1.80;;;;;;;;;;10066605;28;20045;-68
2022/07/09 18:21:51;;;;;;;1.92;1.23;;;;;;;;;;10062530;28;20519;-70
2022/07/09 18:26:45;;;;;;;9.95;2.35;;;;;;;;;;10064689;28;20060;-69
2022/07/09 18:31:40;;;;;;;22.45;2.97;;;;;;;;;;10065347;28;20053;-70
2022/07/09 18:36:34;;;;;;;4.28;1.60;;;;;;;;;;10064308;28;20566;-68
2022/07/09 18:41:29;;;;;;;5.70;1.83;;;;;;;;;;10067472;28;20463;-68
2022/07/09 18:46:22;;;;;;;6.32;1.65;;;;;;;;;;10067654;28;20148;-69
2022/07/09 18:51:18;;;;;;;6.40;2.50;;;;;;;;;;10064411;28;20053;-70
2022/07/09 18:56:14;;;;;;;;;;;;;;;;;;10065459;28;20073;-68
2022/07/09 19:01:08;;;;;;;2.67;1.40;;;;;;;;;;10059714;28;19931;-68
2022/07/09 19:06:02;;;;;;;4.88;1.33;;;;;;;;;;10063297;28;20056;-69
2022/07/09 19:10:57;;;;;;;5.80;1.25;;;;;;;;;;10064032;28;20576;-68
2022/07/09 19:15:51;;;;;;;3.72;1.45;;;;;;;;;;10062044;28;20037;-69
2022/07/09 19:20:44;;;;;;;5.78;1.63;;;;;;;;;;10060185;28;20071;-68
2022/07/09 19:25:38;;;;;;;2.75;1.27;;;;;;;;;;10062134;28;20455;-68
2022/07/09 19:35:45;;;;;;;3.47;1.38;;;;;;;;;;10059354;28;20124;-68
2022/07/09 19:40:40;;;;;;;5.47;1.83;;;;;;;;;;10063808;28;20404;-70
2022/07/09 19:45:34;;;;;;;2.75;1.67;;;;;;;;;;10061695;28;20049;-68
2022/07/09 19:50:29;;;;;;;4.43;2.50;;;;;;;;;;10062969;28;20041;-69
2022/07/09 19:55:23;;;;;;;4.55;2.72;;;;;;;;;;10056021;28;20137;-67
2022/07/09 20:00:17;;;;;;;4.15;2.53;;;;;;;;;;10052793;28;20053;-69
2022/07/09 20:05:12;;;;;;;3.97;1.63;;;;;;;;;;10060098;28;20053;-71
2022/07/09 20:10:10;;;;;;;3.67;1.95;;;;;;;;;;10061945;28;20073;-72
2022/07/09 20:15:06;;;;;;;2.70;1.63;;;;;;;;;;10059922;28;20038;-71
2022/07/09 20:20:00;;;;;;;2.28;1.40;;;;;;;;;;10064077;28;20057;-69
2022/07/09 20:24:54;;;;;;;2.08;1.48;;;;;;;;;;10058512;28;20049;-69
2022/07/09 20:29:49;;;;;;;2.47;1.45;;;;;;;;;;10065518;28;20061;-72
2022/07/09 20:34:42;;;;;;;3.15;1.85;;;;;;;;;;10061951;28;20049;-71
2022/07/09 20:39:37;;;;;;;3.70;1.80;;;;;;;;;;10056442;28;20049;-69
2022/07/09 20:44:33;;;;;;;5.75;2.35;;;;;;;;;;10064583;28;20487;-69
2022/07/09 20:49:29;;;;;;;3.90;2.30;;;;;;;;;;10059696;28;20034;-71
2022/07/09 20:54:23;;;;;;;5.25;1.70;;;;;;;;;;10060701;28;20045;-69
2022/07/09 20:59:17;;;;;;;6.93;2.65;;;;;;;;;;10063697;28;20064;-75
2022/07/09 21:04:12;;;;;;;3.53;1.55;;;;;;;;;;10044232;28;20052;-72
2022/07/09 21:09:05;;;;;;;4.43;1.63;;;;;;;;;;10043994;28;20041;-73
2022/07/09 21:13:59;;;;;;;2.95;1.50;;;;;;;;;;10063084;28;20056;-72
2022/07/09 21:18:54;;;;;;;2.47;2.28;;;;;;;;;;10065313;28;20080;-72
2022/07/09 21:23:48;;;;;;;5.00;1.95;;;;;;;;;;10065963;28;20516;-72
2022/07/09 21:28:42;;;;;;;4.60;1.88;;;;;;;;;;10081163;28;20054;-72
2022/07/09 21:33:38;;;;;;;4.30;1.80;;;;;;;;;;10067249;28;20057;-72
2022/07/09 21:38:35;;;;;;;11.10;2.67;;;;;;;;;;10061920;28;20056;-73
2022/07/09 21:43:29;;;;;;;2.30;2.10;;;;;;;;;;10064876;28;20073;-73
2022/07/09 21:48:25;;;;;;;5.65;2.10;;;;;;;;;;10068332;28;20069;-73
2022/07/09 21:53:19;;;;;;;3.97;2.10;;;;;;;;;;10071307;28;20088;-73
2022/07/09 21:58:14;;;;;;;2.67;2.03;;;;;;;;;;10071496;28;20145;-73
2022/07/09 22:03:08;;;;;;;5.72;2.60;;;;;;;;;;10071102;28;20137;-72
2022/07/09 22:08:03;;;;;;;9.27;3.08;;;;;;;;;;10071205;28;20125;-73
2022/07/09 22:12:57;;;;;;;6.35;2.97;;;;;;;;;;10071169;28;20049;-73
2022/07/09 22:17:51;;;;;;;6.35;2.05;;;;;;;;;;10069777;28;20050;-72
2022/07/09 22:22:44;;;;;;;2.75;2.05;;;;;;;;;;10070551;28;20050;-72
2022/07/09 22:27:39;;;;;;;3.30;2.05;;;;;;;;;;10069979;28;20053;-72
2022/07/09 22:32:33;;;;;;;5.45;2.22;;;;;;;;;;10069824;28;20116;-72
2022/07/09 22:37:26;;;;;;;4.60;2.35;;;;;;;;;;10068186;28;20500;-72
2022/07/09 22:42:21;;;;;;;3.22;2.50;;;;;;;;;;10070062;28;20053;-72
2022/07/09 22:47:15;;;;;;;4.13;2.10;;;;;;;;;;10072389;28;20049;-71
2022/07/09 22:52:09;;;;;;;2.53;1.83;;;;;;;;;;10068929;28;20500;-72
2022/07/09 22:57:05;;;;;;;4.20;1.90;;;;;;;;;;10071127;28;20463;-72
2022/07/09 23:01:58;;;;;;;4.38;2.55;;;;;;;;;;10063143;28;20115;-72
2022/07/09 23:06:52;;;;;;;3.05;1.65;;;;;;;;;;10068472;28;20068;-71
2022/07/09 23:11:46;;;;;;;6.43;1.60;;;;;;;;;;10068700;28;20077;-72
2022/07/09 23:16:42;;;;;;;3.05;1.73;;;;;;;;;;10068653;28;20065;-72
2022/07/09 23:21:39;;;;;;;3.45;2.20;;;;;;;;;;10068248;28;20417;-72
2022/07/09 23:26:33;;;;;;;2.85;1.98;;;;;;;;;;10069623;28;20091;-71
2022/07/09 23:31:26;;;;;;;4.25;1.90;;;;;;;;;;10068741;28;20051;-72
2022/07/09 23:36:22;;;;;;;4.03;2.42;;;;;;;;;;10065943;28;20091;-72
2022/07/09 23:41:16;;;;;;;3.90;2.10;;;;;;;;;;10068409;28;20057;-73
2022/07/09 23:46:10;;;;;;;8.75;3.00;;;;;;;;;;10053365;28;20053;-73
2022/07/09 23:51:05;;;;;;;3.05;1.70;;;;;;;;;;10064707;28;20067;-73
2022/07/09 23:55:59;;;;;;;3.38;1.85;;;;;;;;;;10045477;28;20045;-73
